Time;durP1;ratioP1;P1;durP2;ratioP2;P2;SDS_P1;SDS_P2;PMS_P1;PMS_P2;Temp;Humidity;BMP_temperature;BMP_pressure;BME280_temperature;BME280_humidity;BME280_pressure;Samples;Min_cycle;Max_cycle;Signal;HPM_P1;HPM_P2
2022/03/21 00:02:20;;;;;;;25.77;16.52;;;;;;;0.45;69.78;102061.50;5010793;28;20050;-67
2022/03/21 00:04:46;;;;;;;23.75;17.42;;;;;;;0.89;71.14;102076.88;5025608;28;20038;-69
2022/03/21 00:07:11;;;;;;;27.40;18.83;;;;;;;0.39;69.34;102057.84;5025880;28;20484;-67
2022/03/21 00:09:36;;;;;;;29.85;18.30;;;;;;;0.26;71.67;102031.41;5010871;28;20046;-69
2022/03/21 00:12:04;;;;;;;29.92;19.15;;;;;;;0.40;71.18;102054.53;5009524;28;20029;-68
2022/03/21 00:14:29;;;;;;;28.73;19.02;;;;;;;0.62;71.83;102113.16;5010513;28;20131;-68
2022/03/21 00:16:55;;;;;;;27.00;18.05;;;;;;;0.28;73.25;102046.50;5009152;28;20034;-67
2022/03/21 00:19:20;;;;;;;28.58;18.45;;;;;;;0.59;73.78;102097.16;5010515;28;20116;-67
2022/03/21 00:21:46;;;;;;;24.70;16.83;;;;;;;0.78;72.23;102095.56;5010593;28;20034;-67
2022/03/21 00:24:11;;;;;;;32.08;19.20;;;;;;;0.53;72.35;102054.34;5010761;28;20026;-69
2022/03/21 00:26:37;;;;;;;29.50;19.45;;;;;;;0.83;72.67;102098.28;5025772;28;20026;-67
2022/03/21 00:29:02;;;;;;;34.80;22.33;;;;;;;0.66;74.19;102059.09;5010316;28;20480;-66
2022/03/21 00:31:28;;;;;;;44.13;27.50;;;;;;;0.67;77.71;102096.69;5010500;28;20471;-66
2022/03/21 00:33:54;;;;;;;43.50;25.80;;;;;;;0.34;77.93;102094.28;5010177;28;20153;-67
2022/03/21 00:36:19;;;;;;;40.15;23.67;;;;;;;0.26;79.61;102038.06;5010626;28;20125;-67
2022/03/21 00:38:45;;;;;;;33.97;20.98;;;;;;;0.65;79.38;102087.44;5010532;28;20424;-68
2022/03/21 00:41:11;;;;;;;31.58;20.30;;;;;;;0.40;81.38;102074.56;5010497;28;20499;-68
2022/03/21 00:43:36;;;;;;;30.63;20.52;;;;;;;0.76;78.37;102081.25;5010272;28;20488;-68
2022/03/21 00:46:02;;;;;;;27.00;18.85;;;;;;;0.00;79.55;102007.69;5010468;28;20030;-68
2022/03/21 00:48:30;;;;;;;30.38;19.67;;;;;;;0.13;78.28;102035.75;5010132;28;20350;-68
2022/03/21 00:50:56;;;;;;;29.00;18.33;;;;;;;0.24;77.18;102007.13;5010384;28;20037;-68
2022/03/21 00:53:22;;;;;;;24.38;16.33;;;;;;;0.31;75.98;101994.97;5010266;28;20493;-68
2022/03/21 00:55:49;;;;;;;22.95;15.32;;;;;;;0.81;74.08;102052.31;5010390;28;20034;-68
2022/03/21 00:58:15;;;;;;;27.27;15.95;;;;;;;-0.19;74.51;101940.16;5010116;28;20025;-68
2022/03/21 01:03:16;;;;;;;23.58;16.35;;;;;;;0.21;75.77;102057.00;4316106;22;10002307;-64
2022/03/21 01:05:41;;;;;;;23.55;16.15;;;;;;;0.38;75.81;102063.63;5026006;28;20083;-64
2022/03/21 01:08:07;;;;;;;21.75;14.90;;;;;;;0.59;75.12;102057.13;5026000;28;20081;-65
2022/03/21 01:10:33;;;;;;;24.30;15.38;;;;;;;0.52;72.95;102035.09;5024827;28;20037;-65
2022/03/21 01:13:00;;;;;;;22.95;14.23;;;;;;;1.12;70.92;102064.50;5024104;28;20053;-66
2022/03/21 01:15:27;;;;;;;21.30;14.27;;;;;;;0.91;69.45;102061.94;5004797;28;20034;-65
2022/03/21 01:17:54;;;;;;;22.77;14.20;;;;;;;0.95;68.48;102033.75;5008437;28;20037;-65
2022/03/21 01:20:21;;;;;;;23.15;14.05;;;;;;;0.92;68.81;102032.72;5025995;28;20454;-65
2022/03/21 01:22:47;;;;;;;23.83;14.95;;;;;;;1.16;70.19;102056.34;5026337;28;20041;-64
2022/03/21 01:25:13;;;;;;;28.10;17.13;;;;;;;0.44;71.27;102029.75;5026286;28;20041;-64
2022/03/21 01:27:39;;;;;;;29.42;18.65;;;;;;;0.69;72.09;102065.09;5026813;28;20800;-65
2022/03/21 01:30:08;;;;;;;22.38;15.15;;;;;;;0.85;70.63;102019.13;5030022;28;20029;-65
2022/03/21 01:32:34;;;;;;;24.70;16.77;;;;;;;0.95;69.11;102070.44;5029675;28;20044;-65
2022/03/21 01:34:59;;;;;;;23.83;16.08;;;;;;;0.81;68.45;102027.28;5014120;28;20042;-65
2022/03/21 01:37:25;;;;;;;23.88;15.93;;;;;;;1.29;67.37;102059.44;5013788;28;20095;-65
2022/03/21 01:39:50;;;;;;;25.95;15.23;;;;;;;1.09;67.75;102034.34;5028118;28;20026;-64
2022/03/21 01:42:16;;;;;;;20.73;13.75;;;;;;;0.96;66.29;101984.50;5029371;28;20044;-65
2022/03/21 01:44:42;;;;;;;22.38;13.10;;;;;;;1.18;65.59;102018.06;5028356;28;20794;-65
2022/03/21 01:47:07;;;;;;;18.92;12.82;;;;;;;1.14;65.29;102010.34;5029487;28;20088;-65
2022/03/21 01:49:33;;;;;;;25.63;13.43;;;;;;;1.51;64.58;102032.00;5028338;28;20418;-65
2022/03/21 01:51:58;;;;;;;19.42;13.80;;;;;;;1.51;64.91;102044.53;5029375;28;20121;-65
2022/03/21 01:57:10;;;;;;;19.88;12.35;;;;;;;1.72;62.97;102035.38;5029622;28;20462;-65
2022/03/21 01:59:36;;;;;;;20.60;12.18;;;;;;;1.86;64.81;102055.16;5029378;28;20117;-64
2022/03/21 02:02:02;;;;;;;17.67;11.88;;;;;;;1.68;63.81;102042.72;5032659;28;20128;-65
2022/03/21 02:04:28;;;;;;;18.52;12.45;;;;;;;1.56;64.25;102029.69;5048876;28;20037;-64
2022/03/21 02:06:54;;;;;;;17.25;11.90;;;;;;;1.80;65.30;102044.88;5049142;28;20041;-64
2022/03/21 02:09:19;;;;;;;19.15;11.65;;;;;;;1.43;64.13;102007.41;5048746;28;20473;-64
2022/03/21 02:11:44;;;;;;;18.73;12.07;;;;;;;1.64;65.09;102019.16;5048938;28;20031;-65
2022/03/21 02:14:10;;;;;;;16.90;11.70;;;;;;;1.46;64.47;102030.09;5048164;28;20025;-64
2022/03/21 02:16:37;;;;;;;19.02;11.55;;;;;;;1.66;64.81;102041.81;5048825;28;20036;-64
2022/03/21 02:19:29;;;;;;;17.58;11.38;;;;;;;1.47;62.93;102010.09;5048922;28;20053;-64
2022/03/21 02:22:07;;;;;;;17.65;11.18;;;;;;;1.89;62.74;102043.59;5048667;28;20788;-64
2022/03/21 02:25:00;;;;;;;16.33;10.98;;;;;;;1.48;62.98;102046.06;5037714;28;20450;-64
2022/03/21 02:27:28;;;;;;;19.88;11.32;;;;;;;1.42;63.77;102048.31;5028136;28;20083;-64
2022/03/21 02:29:55;;;;;;;16.92;11.73;;;;;;;1.74;63.84;102048.00;5028374;28;20060;-64
2022/03/21 02:32:21;;;;;;;19.92;11.70;;;;;;;1.42;64.20;102040.78;5028600;28;20132;-64
2022/03/21 02:34:48;;;;;;;17.73;12.07;;;;;;;1.16;64.91;102014.63;5028619;28;20530;-65
2022/03/21 02:37:16;;;;;;;18.05;11.50;;;;;;;1.65;63.82;102003.34;5028805;28;20037;-64
2022/03/21 02:39:43;;;;;;;20.65;11.90;;;;;;;1.76;64.00;102054.75;5028159;28;20055;-64
2022/03/21 02:42:08;;;;;;;18.85;12.75;;;;;;;1.02;63.82;102064.91;5028883;28;20450;-64
2022/03/21 02:44:35;;;;;;;23.15;14.15;;;;;;;-0.17;69.96;102065.16;5026791;28;20037;-64
2022/03/21 02:47:02;;;;;;;18.67;13.95;;;;;;;-0.02;73.79;102064.25;5027290;28;20036;-64
2022/03/21 02:49:27;;;;;;;22.90;13.27;;;;;;;-0.22;76.48;102049.91;5027822;28;20749;-64
2022/03/21 02:51:54;;;;;;;22.05;13.70;;;;;;;0.02;77.53;102074.41;5027989;28;20591;-64
2022/03/21 02:54:22;;;;;;;19.08;12.43;;;;;;;-0.01;77.70;102077.59;5026751;28;20438;-63
2022/03/21 02:56:48;;;;;;;20.05;13.05;;;;;;;-0.42;79.53;102035.63;5027906;28;20039;-64
2022/03/21 02:59:16;;;;;;;21.88;13.07;;;;;;;0.23;77.78;102067.91;5027828;28;20038;-64
2022/03/21 03:01:42;;;;;;;19.75;12.35;;;;;;;-0.24;78.39;102070.66;5028783;28;20473;-64
2022/03/21 03:04:08;;;;;;;16.50;11.98;;;;;;;0.15;78.73;102062.56;5048021;28;20044;-64
2022/03/21 03:06:34;;;;;;;16.17;10.48;;;;;;;0.84;72.35;102069.94;5047980;28;20036;-64
2022/03/21 03:09:00;;;;;;;16.08;10.90;;;;;;;1.03;69.65;102052.44;5030643;28;20036;-64
2022/03/21 03:11:25;;;;;;;17.55;10.73;;;;;;;0.76;68.74;102069.59;5027992;28;20037;-64
2022/03/21 03:13:51;;;;;;;18.50;11.88;;;;;;;0.54;68.88;102038.53;5026859;28;20659;-65
2022/03/21 03:16:16;;;;;;;20.40;11.90;;;;;;;0.80;69.92;102081.47;5027803;28;20388;-64
2022/03/21 03:18:44;;;;;;;16.77;11.30;;;;;;;0.54;71.09;102084.44;5026490;28;20466;-65
2022/03/21 03:21:13;;;;;;;19.80;11.65;;;;;;;0.08;73.86;102043.03;5027670;28;20092;-64
2022/03/21 03:23:40;;;;;;;20.38;11.52;;;;;;;0.08;75.29;102045.53;5026181;28;20517;-64
2022/03/21 03:26:06;;;;;;;16.05;11.10;;;;;;;0.46;74.58;102074.84;5027123;28;20120;-64
2022/03/21 03:28:32;;;;;;;18.48;11.52;;;;;;;0.09;75.00;102046.41;5027565;28;20124;-64
2022/03/21 03:31:01;;;;;;;20.30;12.07;;;;;;;0.34;75.55;102072.63;5028065;28;20059;-64
2022/03/21 03:33:27;;;;;;;18.63;12.38;;;;;;;0.09;75.82;102074.78;5027212;28;20043;-64
2022/03/21 03:35:53;;;;;;;19.80;11.80;;;;;;;0.02;78.00;102041.91;5027434;28;20040;-63
2022/03/21 03:38:18;;;;;;;21.48;12.45;;;;;;;0.07;78.85;102030.47;5025924;28;20034;-64
2022/03/21 03:40:44;;;;;;;18.48;12.52;;;;;;;0.04;80.20;102082.84;5027429;28;20039;-63
2022/03/21 03:43:11;;;;;;;22.88;15.23;;;;;;;0.08;80.07;102084.69;5025704;28;20554;-64
2022/03/21 03:45:37;;;;;;;23.17;16.38;;;;;;;0.23;82.29;102075.41;5026047;28;20037;-64
2022/03/21 03:48:04;;;;;;;29.48;17.75;;;;;;;0.22;82.57;102073.72;5027443;28;20124;-64
2022/03/21 03:50:29;;;;;;;71.50;41.47;;;;;;;-0.05;84.60;102071.63;5026462;28;20556;-64
2022/03/21 03:52:54;;;;;;;82.68;46.08;;;;;;;0.01;83.38;102043.53;5027041;28;20033;-64
2022/03/21 03:55:20;;;;;;;82.20;48.55;;;;;;;-0.01;83.72;102062.59;5027024;28;20110;-64
2022/03/21 03:57:47;;;;;;;66.95;40.42;;;;;;;-0.10;84.63;102067.19;5027797;28;20037;-64
2022/03/21 04:00:14;;;;;;;51.17;31.15;;;;;;;-0.21;85.91;102041.66;5027531;28;20106;-64
2022/03/21 04:05:24;;;;;;;55.72;34.58;;;;;;;-0.51;89.79;102039.28;5047218;28;20090;-63
2022/03/21 04:07:49;;;;;;;55.13;33.88;;;;;;;-0.38;90.50;102072.47;5046713;28;20430;-63
2022/03/21 04:10:15;;;;;;;39.38;24.77;;;;;;;-0.77;90.23;101998.03;5047005;28;20032;-64
2022/03/21 04:12:43;;;;;;;29.33;19.42;;;;;;;-0.37;87.29;102026.72;5047278;28;20061;-64
2022/03/21 04:15:09;;;;;;;24.15;15.85;;;;;;;-0.22;85.96;102042.44;5026567;28;20036;-64
2022/03/21 04:17:35;;;;;;;25.67;14.88;;;;;;;-0.12;83.52;102061.25;5025834;28;20029;-64
2022/03/21 04:20:02;;;;;;;25.75;13.95;;;;;;;0.08;81.56;102064.69;5025720;28;20120;-64
2022/03/21 04:22:28;;;;;;;24.38;14.32;;;;;;;-0.19;79.86;102019.25;5026939;28;20399;-65
2022/03/21 04:24:53;;;;;;;26.38;16.48;;;;;;;-0.11;80.09;102035.47;5026875;28;20041;-64
2022/03/21 04:27:19;;;;;;;42.33;21.75;;;;;;;-0.03;80.42;102062.53;5026937;28;20052;-65
2022/03/21 04:29:44;;;;;;;46.17;24.80;;;;;;;0.06;78.90;102068.78;5026831;28;20057;-64
2022/03/21 04:32:10;;;;;;;61.65;35.00;;;;;;;0.08;77.91;102064.69;5026828;28;20068;-64
2022/03/21 04:34:35;;;;;;;203.90;86.50;;;;;;;-0.34;77.24;102069.34;5026970;28;20033;-64
2022/03/21 04:37:02;;;;;;;202.68;86.22;;;;;;;-0.05;78.49;102043.25;5027097;28;20030;-64
2022/03/21 04:39:27;;;;;;;104.40;54.08;;;;;;;-0.47;79.18;102069.50;5026586;28;20028;-63
2022/03/21 04:41:53;;;;;;;101.10;54.22;;;;;;;-0.33;80.28;102032.69;5026950;28;20117;-64
2022/03/21 04:44:18;;;;;;;79.75;46.38;;;;;;;-0.05;78.85;102066.63;5018193;28;20634;-64
2022/03/21 04:46:44;;;;;;;71.57;43.13;;;;;;;0.46;77.19;102062.34;5007048;28;20041;-64
2022/03/21 04:49:10;;;;;;;60.25;37.30;;;;;;;1.48;68.98;102046.91;5005566;28;20048;-64
2022/03/21 04:51:35;;;;;;;49.80;30.90;;;;;;;0.18;71.36;102044.34;5017525;28;20041;-64
2022/03/21 04:54:01;;;;;;;45.28;26.98;;;;;;;1.54;69.02;102057.19;5026184;28;20044;-64
2022/03/21 04:56:27;;;;;;;22.70;15.68;;;;;;;0.74;67.17;102071.19;5026525;28;20507;-64
2022/03/21 04:58:52;;;;;;;19.23;11.68;;;;;;;0.61;67.10;102020.53;5026586;28;20076;-64
2022/03/21 05:01:19;;;;;;;15.85;10.60;;;;;;;0.46;67.34;102035.69;5026441;28;20075;-63
2022/03/21 05:03:44;;;;;;;20.55;13.60;;;;;;;0.97;66.67;102067.19;5029268;28;20056;-64
2022/03/21 05:06:10;;;;;;;25.08;16.20;;;;;;;1.33;65.71;102051.25;5032106;28;20029;-64
2022/03/21 05:08:35;;;;;;;17.38;12.45;;;;;;;1.13;65.20;101983.59;5031580;28;20026;-63
2022/03/21 05:11:00;;;;;;;21.52;12.32;;;;;;;1.64;64.50;102053.41;5013404;28;20030;-64
2022/03/21 05:13:26;;;;;;;16.13;10.60;;;;;;;1.57;62.93;102029.75;5013720;28;20029;-64
2022/03/21 05:15:51;;;;;;;17.27;10.70;;;;;;;2.22;62.28;102054.13;5012197;28;20033;-63
2022/03/21 05:18:17;;;;;;;18.77;11.38;;;;;;;1.77;61.11;101978.78;5013638;28;20042;-64
2022/03/21 05:20:44;;;;;;;17.58;10.10;;;;;;;2.61;63.35;102041.41;5013393;28;20026;-64
2022/03/21 05:31:22;;;;;;;17.65;10.50;;;;;;;3.37;57.63;102040.00;5013130;28;20056;-64
2022/03/21 05:36:35;;;;;;;18.52;9.93;;;;;;;3.79;53.92;102042.22;4984943;28;20045;-66
2022/03/21 05:39:02;;;;;;;19.13;10.50;;;;;;;3.70;55.04;102032.75;5013415;28;20030;-66
2022/03/21 05:41:27;;;;;;;18.15;11.05;;;;;;;4.08;52.96;102021.38;5011738;28;20054;-65
2022/03/21 05:43:53;;;;;;;17.80;11.23;;;;;;;4.45;53.35;102009.09;5012792;28;20087;-64
2022/03/21 05:46:19;;;;;;;19.75;11.60;;;;;;;4.56;59.17;102004.34;5020016;28;20083;-66
2022/03/21 05:48:51;;;;;;;17.85;11.48;;;;;;;4.48;54.04;102038.56;5032356;28;20025;-65
2022/03/21 05:51:37;;;;;;;18.88;11.05;;;;;;;4.21;52.61;102011.75;5028689;28;20033;-65
2022/03/21 05:54:05;;;;;;;17.05;10.10;;;;;;;4.66;50.44;102011.38;5031154;28;20106;-66
2022/03/21 05:56:31;;;;;;;13.85;9.40;;;;;;;4.61;49.14;101987.72;5031764;28;20336;-65
2022/03/21 05:58:59;;;;;;;17.17;10.23;;;;;;;5.32;49.00;102035.06;5030457;28;20532;-65
2022/03/21 06:01:25;;;;;;;17.70;10.93;;;;;;;4.99;49.10;102004.78;5032003;28;20427;-62
2022/03/21 06:03:54;;;;;;;16.40;11.40;;;;;;;5.19;47.29;102024.66;5031984;28;20046;-63
2022/03/21 06:06:21;;;;;;;18.92;11.70;;;;;;;5.09;47.53;101973.97;5032764;28;20033;-64
2022/03/21 06:08:48;;;;;;;16.73;10.50;;;;;;;5.48;47.17;102044.75;5031436;28;20026;-63
2022/03/21 06:11:14;;;;;;;15.18;11.02;;;;;;;5.73;46.65;102034.44;5032165;28;20029;-63
2022/03/21 06:13:42;;;;;;;19.27;11.02;;;;;;;5.92;45.24;102029.91;5031690;28;20036;-64
2022/03/21 06:16:08;;;;;;;16.73;10.75;;;;;;;5.89;45.61;102036.56;5032131;28;20411;-64
2022/03/21 06:18:35;;;;;;;15.82;11.20;;;;;;;5.49;44.67;102033.81;5029198;28;20025;-64
2022/03/21 06:21:02;;;;;;;15.77;10.40;;;;;;;5.94;44.13;101980.31;5012161;28;20029;-63
2022/03/21 06:23:28;;;;;;;12.65;9.20;;;;;;;5.97;42.80;102023.31;5012172;28;20030;-64
2022/03/21 06:25:54;;;;;;;13.32;9.05;;;;;;;6.71;42.58;101973.59;5012594;28;20107;-64
2022/03/21 06:28:23;;;;;;;13.95;8.25;;;;;;;6.11;42.67;102005.97;5012772;28;20092;-65
2022/03/21 06:30:51;;;;;;;12.73;8.32;;;;;;;5.95;42.50;102003.91;5012435;28;20032;-65
2022/03/21 06:33:17;;;;;;;13.55;8.20;;;;;;;6.44;41.52;102004.19;5012339;28;20022;-64
2022/03/21 06:35:43;;;;;;;11.02;8.25;;;;;;;6.69;40.94;102024.09;5012226;28;20030;-64
2022/03/21 06:38:10;;;;;;;11.32;7.80;;;;;;;6.42;40.67;101990.66;5012023;28;20052;-64
2022/03/21 06:40:36;;;;;;;12.30;8.05;;;;;;;7.54;40.54;102040.91;5012483;28;20518;-64
2022/03/21 06:43:02;;;;;;;11.98;8.10;;;;;;;7.00;39.76;102031.47;5012617;28;20037;-64
2022/03/21 06:45:28;;;;;;;13.00;8.70;;;;;;;7.15;39.42;102004.78;5012539;28;20021;-65
2022/03/21 06:47:53;;;;;;;11.93;7.57;;;;;;;6.70;39.30;102004.72;5012280;28;20030;-64
2022/03/21 06:50:19;;;;;;;14.45;8.25;;;;;;;7.03;38.65;102045.88;5012098;28;20171;-65
2022/03/21 06:52:44;;;;;;;13.82;8.68;;;;;;;7.17;38.73;101993.84;5011739;28;20030;-65
2022/03/21 06:55:12;;;;;;;13.60;7.63;;;;;;;7.19;39.17;102009.06;5011848;28;20030;-65
2022/03/21 06:57:39;;;;;;;11.43;8.15;;;;;;;7.20;39.31;101988.00;5011989;28;20025;-64
2022/03/21 07:00:06;;;;;;;26.73;10.45;;;;;;;8.01;37.87;101994.44;5012083;28;20495;-64
2022/03/21 07:02:33;;;;;;;12.25;7.93;;;;;;;7.99;38.20;102005.34;5012034;28;20053;-64
2022/03/21 07:04:58;;;;;;;10.32;7.28;;;;;;;7.97;37.22;101986.75;5011845;28;20084;-65
2022/03/21 07:07:25;;;;;;;10.25;7.50;;;;;;;8.23;37.37;101985.47;5011750;28;20041;-64
2022/03/21 07:09:50;;;;;;;12.77;7.18;;;;;;;8.11;37.10;102024.13;5012415;28;20036;-65
2022/03/21 07:12:16;;;;;;;12.30;7.95;;;;;;;8.95;36.39;102010.94;5011746;28;20030;-65
2022/03/21 07:14:41;;;;;;;13.13;7.00;;;;;;;7.74;37.03;101984.72;5011643;28;20411;-65
2022/03/21 07:17:06;;;;;;;10.80;7.07;;;;;;;8.31;36.85;102019.38;5011655;28;20034;-64
2022/03/21 07:19:32;;;;;;;9.40;7.03;;;;;;;7.96;36.25;102018.00;5011430;28;20488;-64
2022/03/21 07:21:57;;;;;;;10.38;6.60;;;;;;;7.49;36.49;101992.75;5011317;28;20049;-65
2022/03/21 07:24:23;;;;;;;10.80;6.65;;;;;;;8.19;36.33;102007.38;5011487;28;20061;-64
2022/03/21 07:26:48;;;;;;;13.48;7.50;;;;;;;8.35;36.65;102016.94;5010990;28;20030;-65
2022/03/21 07:29:14;;;;;;;11.60;7.00;;;;;;;8.27;35.67;102018.50;5011604;28;20506;-65
2022/03/21 07:31:39;;;;;;;9.82;7.18;;;;;;;8.21;35.74;101972.78;5011480;28;20494;-65
2022/03/21 07:34:06;;;;;;;7.75;6.03;;;;;;;7.63;34.80;101981.16;5011060;28;20511;-65
2022/03/21 07:36:32;;;;;;;8.60;5.88;;;;;;;8.42;34.23;102003.50;5011095;28;20036;-65
2022/03/21 07:38:58;;;;;;;10.30;6.15;;;;;;;8.85;35.09;101969.41;5011413;28;20026;-65
2022/03/21 07:41:27;;;;;;;12.15;7.03;;;;;;;8.79;34.68;101999.75;5011173;28;20025;-65
2022/03/21 07:43:56;;;;;;;11.43;7.88;;;;;;;9.14;34.12;101960.41;5011458;28;20064;-66
2022/03/21 07:49:06;;;;;;;7.32;5.80;;;;;;;8.36;34.74;101988.22;5011157;28;20065;-66
2022/03/21 07:51:32;;;;;;;12.05;6.57;;;;;;;9.09;35.05;101954.41;5010933;28;20480;-65
2022/03/21 07:53:57;;;;;;;10.55;7.75;;;;;;;8.87;34.22;101987.16;5010907;28;20065;-65
2022/03/21 07:56:23;;;;;;;11.38;8.88;;;;;;;9.26;34.63;101952.03;5011427;28;20034;-66
2022/03/21 07:58:48;;;;;;;8.05;5.70;;;;;;;9.44;34.23;101977.59;5010911;28;20117;-65
2022/03/21 08:01:14;;;;;;;8.82;6.47;;;;;;;9.16;33.27;101946.03;5010875;28;20030;-66
2022/03/21 08:03:39;;;;;;;8.20;6.07;;;;;;;10.10;33.42;101906.97;5010925;28;20482;-65
2022/03/21 08:06:08;;;;;;;8.98;6.55;;;;;;;10.13;32.36;101931.56;5010744;28;20091;-65
2022/03/21 08:08:34;;;;;;;9.85;5.10;;;;;;;9.06;32.65;101951.84;5009377;28;20513;-66
2022/03/21 08:10:59;;;;;;;6.95;5.03;;;;;;;9.00;32.91;101976.31;5010933;28;20112;-65
2022/03/21 08:13:26;;;;;;;6.80;4.57;;;;;;;9.14;31.75;101934.16;5010617;28;20057;-65
2022/03/21 08:15:51;;;;;;;6.28;4.55;;;;;;;8.93;33.23;101969.47;5010661;28;20030;-65
2022/03/21 08:18:17;;;;;;;7.22;4.70;;;;;;;8.81;32.75;101918.63;5010487;28;20036;-65
2022/03/21 08:20:43;;;;;;;6.20;4.55;;;;;;;8.79;32.89;101948.19;5010445;28;20037;-66
2022/03/21 08:23:13;;;;;;;7.03;4.95;;;;;;;9.89;32.12;101967.78;5010738;28;20486;-65
2022/03/21 08:25:45;;;;;;;6.22;4.05;;;;;;;8.94;32.75;101959.34;5010705;28;20029;-65
2022/03/21 08:28:11;;;;;;;6.40;5.18;;;;;;;9.84;33.09;101961.84;5010633;28;20030;-65
2022/03/21 08:30:38;;;;;;;6.57;5.10;;;;;;;10.19;33.19;101952.78;5025811;28;20149;-65
2022/03/21 08:33:06;;;;;;;8.13;5.40;;;;;;;10.32;33.66;101951.97;5010368;28;20030;-65
2022/03/21 08:35:33;;;;;;;6.32;5.30;;;;;;;9.86;32.90;101961.84;5010604;28;20113;-65
2022/03/21 08:37:59;;;;;;;8.77;4.88;;;;;;;10.08;33.22;101943.38;5013947;28;20092;-65
2022/03/21 08:40:25;;;;;;;8.15;4.47;;;;;;;9.33;33.40;101959.72;5014413;28;20120;-64
2022/03/21 08:42:51;;;;;;;7.68;5.10;;;;;;;10.33;32.71;101905.41;5014695;28;20033;-65
2022/03/21 08:45:17;;;;;;;9.43;5.70;;;;;;;10.68;31.90;101917.38;5014192;28;20029;-65
2022/03/21 08:47:43;;;;;;;15.23;7.15;;;;;;;10.01;32.64;101913.66;5014431;28;20072;-65
2022/03/21 08:50:10;;;;;;;11.32;7.13;;;;;;;10.44;33.67;101952.03;5014578;28;20075;-65
2022/03/21 08:52:36;;;;;;;8.13;5.70;;;;;;;10.42;32.45;101900.34;5014392;28;20032;-66
2022/03/21 08:55:02;;;;;;;9.73;6.03;;;;;;;9.74;32.61;101911.81;5014090;28;20030;-66
2022/03/21 08:57:28;;;;;;;9.80;4.88;;;;;;;10.05;33.17;101895.06;5014219;28;20081;-66
2022/03/21 08:59:53;;;;;;;8.27;4.90;;;;;;;10.69;32.22;101939.44;5014297;28;20053;-66
2022/03/21 09:02:20;;;;;;;8.15;5.20;;;;;;;10.82;33.10;101926.75;5014101;28;20042;-66
2022/03/21 09:04:45;;;;;;;10.48;6.10;;;;;;;9.86;34.08;101903.41;5014236;28;20535;-66
2022/03/21 09:07:14;;;;;;;8.20;5.40;;;;;;;10.86;32.70;101897.91;5014161;28;20084;-66
2022/03/21 09:09:41;;;;;;;8.25;5.75;;;;;;;10.52;34.61;101882.59;5014018;28;20021;-66
2022/03/21 09:12:07;;;;;;;6.85;4.93;;;;;;;10.89;33.44;101930.16;5013975;28;20030;-66
2022/03/21 09:14:33;;;;;;;6.15;4.78;;;;;;;10.87;33.10;101898.78;5013689;28;20037;-65
2022/03/21 09:17:00;;;;;;;12.25;7.35;;;;;;;10.75;33.83;101899.59;5014161;28;20108;-66
2022/03/21 09:19:27;;;;;;;7.07;5.72;;;;;;;10.94;33.92;101908.09;5014058;28;20033;-65
2022/03/21 09:21:53;;;;;;;8.45;5.90;;;;;;;10.68;33.56;101913.13;5013866;28;20566;-65
2022/03/21 09:24:19;;;;;;;9.20;5.72;;;;;;;10.29;34.41;101887.56;5014104;28;20036;-66
2022/03/21 09:26:45;;;;;;;8.18;4.88;;;;;;;10.27;33.58;101895.19;5013569;28;20041;-64
2022/03/21 09:29:11;;;;;;;8.60;5.38;;;;;;;11.53;33.44;101898.78;5013785;28;20022;-66
2022/03/21 09:31:38;;;;;;;9.30;5.97;;;;;;;10.63;33.99;101912.28;5013841;28;20080;-66
2022/03/21 09:34:04;;;;;;;7.57;5.40;;;;;;;12.26;33.73;101907.13;5013522;28;20451;-66
2022/03/21 09:36:29;;;;;;;9.82;6.18;;;;;;;10.81;33.51;101871.63;5013391;28;20030;-65
2022/03/21 09:38:55;;;;;;;9.32;6.22;;;;;;;11.32;33.92;101914.09;5013553;28;20030;-65
2022/03/21 09:41:26;;;;;;;10.00;6.38;;;;;;;11.04;34.26;101892.84;5013265;28;20033;-66
2022/03/21 09:43:56;;;;;;;8.25;6.47;;;;;;;10.86;34.92;101872.47;5013475;28;20409;-65
2022/03/21 09:46:22;;;;;;;9.93;7.80;;;;;;;11.64;34.69;101889.44;5013734;28;20034;-65
2022/03/21 09:48:49;;;;;;;8.52;5.47;;;;;;;11.19;34.34;101890.31;5012180;28;20041;-65
2022/03/21 09:51:28;;;;;;;9.35;6.03;;;;;;;11.43;33.87;101871.63;5013193;28;20033;-66
2022/03/21 09:53:55;;;;;;;12.00;8.73;;;;;;;12.93;32.68;101849.75;5013272;28;20058;-64
2022/03/21 09:56:21;;;;;;;9.13;6.03;;;;;;;11.65;33.78;101885.19;5013241;28;20034;-65
2022/03/21 09:58:47;;;;;;;8.88;6.18;;;;;;;12.37;33.17;101885.00;5013390;28;20113;-64
2022/03/21 10:01:14;;;;;;;10.07;6.13;;;;;;;12.81;33.84;101842.22;5013191;28;20029;-66
2022/03/21 10:03:40;;;;;;;9.25;5.55;;;;;;;11.39;32.65;101824.09;5028194;28;20052;-65
2022/03/21 10:06:40;;;;;;;9.10;5.18;;;;;;;11.62;32.98;101868.22;5032937;28;20112;-66
2022/03/21 10:09:13;;;;;;;7.85;6.00;;;;;;;12.03;33.29;101802.72;5010416;28;20033;-66
2022/03/21 10:11:47;;;;;;;13.82;6.40;;;;;;;12.27;33.11;101823.84;5032610;28;20033;-66
2022/03/21 10:14:25;;;;;;;7.15;5.07;;;;;;;12.06;32.78;101857.94;5032625;28;20094;-66
2022/03/21 10:16:56;;;;;;;6.25;4.85;;;;;;;12.74;32.11;101822.69;5032533;28;20041;-66
2022/03/21 10:19:22;;;;;;;10.15;5.40;;;;;;;12.82;32.45;101849.00;5032837;28;20098;-66
2022/03/21 10:22:02;;;;;;;5.88;5.25;;;;;;;13.57;32.44;101796.41;5032637;28;20421;-66
2022/03/21 10:24:36;;;;;;;7.45;5.88;;;;;;;13.60;32.17;101811.75;5032375;28;20033;-66
2022/03/21 10:27:02;;;;;;;6.93;5.13;;;;;;;12.72;31.80;101836.31;5032267;28;20112;-66
2022/03/21 10:29:28;;;;;;;6.75;5.07;;;;;;;12.51;32.23;101841.56;5031867;28;20116;-65
2022/03/21 10:31:53;;;;;;;7.55;4.85;;;;;;;12.58;32.89;101793.03;5032520;28;20064;-66
2022/03/21 10:34:21;;;;;;;6.50;5.32;;;;;;;12.44;32.82;101815.22;5032310;28;20510;-65
2022/03/21 10:37:16;;;;;;;6.88;5.07;;;;;;;12.78;31.50;101833.72;5032482;28;20087;-65
2022/03/21 10:39:50;;;;;;;7.30;4.85;;;;;;;14.11;31.78;101796.63;5022873;28;20037;-65
2022/03/21 10:42:15;;;;;;;9.70;5.63;;;;;;;13.45;32.15;101780.41;5030858;28;20423;-65
2022/03/21 10:44:40;;;;;;;8.18;5.80;;;;;;;14.42;31.55;101820.97;5032338;28;20033;-66
2022/03/21 10:47:07;;;;;;;6.57;5.05;;;;;;;14.05;31.23;101825.69;5032123;28;20537;-66
2022/03/21 10:49:37;;;;;;;10.02;5.78;;;;;;;14.28;31.11;101815.19;5031938;28;20022;-66
2022/03/21 10:52:05;;;;;;;6.85;5.07;;;;;;;13.39;31.91;101778.72;5031910;28;20044;-66
2022/03/21 10:54:50;;;;;;;7.28;5.00;;;;;;;14.16;31.64;101825.56;5031406;28;20480;-66
2022/03/21 10:57:33;;;;;;;6.88;5.78;;;;;;;12.89;32.51;101824.28;5029615;28;20518;-66
2022/03/21 11:00:15;;;;;;;9.23;5.80;;;;;;;14.13;31.90;101813.66;5011306;28;20120;-65
2022/03/21 11:03:00;;;;;;;6.75;5.30;;;;;;;14.64;31.04;101817.22;5011884;28;20057;-66
2022/03/21 11:05:28;;;;;;;8.75;6.20;;;;;;;14.87;31.81;101774.19;5012048;28;20049;-65
2022/03/21 11:07:54;;;;;;;9.40;6.53;;;;;;;13.50;32.03;101760.72;5011666;28;20566;-66
2022/03/21 11:10:21;;;;;;;7.53;6.32;;;;;;;13.61;31.80;101804.88;5027346;28;20058;-66
2022/03/21 11:12:47;;;;;;;7.78;6.85;;;;;;;14.80;32.11;101805.88;5011751;28;20099;-66
2022/03/21 11:15:13;;;;;;;7.20;5.88;;;;;;;13.29;31.55;101784.78;5011403;28;20484;-66
2022/03/21 11:17:41;;;;;;;9.98;6.13;;;;;;;14.01;32.71;101779.69;5011460;28;20033;-66
2022/03/21 11:20:08;;;;;;;7.90;5.95;;;;;;;11.82;33.16;101810.44;5011713;28;20026;-66
2022/03/21 11:22:35;;;;;;;8.57;6.05;;;;;;;12.72;32.55;101736.78;5011484;28;20030;-66
2022/03/21 11:25:06;;;;;;;7.65;6.43;;;;;;;14.27;31.55;101747.78;5011889;28;20052;-66
2022/03/21 11:27:51;;;;;;;20.98;13.82;;;;;;;15.28;32.04;101766.59;5011421;28;20034;-66
2022/03/21 11:30:30;;;;;;;9.25;6.40;;;;;;;13.38;32.23;101773.63;5011396;28;20408;-66
2022/03/21 11:33:06;;;;;;;9.30;6.25;;;;;;;12.98;31.98;101778.25;5026224;28;20057;-66
2022/03/21 11:35:33;;;;;;;8.48;6.50;;;;;;;13.07;31.33;101775.66;5031204;28;20053;-66
2022/03/21 11:38:21;;;;;;;8.35;5.90;;;;;;;13.81;31.76;101764.59;5030892;28;20528;-66
2022/03/21 11:40:46;;;;;;;7.88;6.55;;;;;;;14.94;31.43;101752.72;5030991;28;20025;-66
2022/03/21 11:43:14;;;;;;;6.97;5.75;;;;;;;13.53;32.02;101758.97;5030841;28;20022;-66